sensor_id;sensor_type;location;lat;lon;timestamp;temperature;humidity
8860;DHT22;4466;50.948;4.832;2023-08-24T00:01:16;19.50;99.90
8860;DHT22;4466;50.948;4.832;2023-08-24T00:03:44;19.50;99.90
8860;DHT22;4466;50.948;4.832;2023-08-24T00:06:11;19.40;99.90
8860;DHT22;4466;50.948;4.832;2023-08-24T00:08:37;19.40;99.90
8860;DHT22;4466;50.948;4.832;2023-08-24T00:11:03;19.30;99.90
8860;DHT22;4466;50.948;4.832;2023-08-24T00:13:28;19.30;99.90
8860;DHT22;4466;50.948;4.832;2023-08-24T00:15:54;19.10;99.90
8860;DHT22;4466;50.948;4.832;2023-08-24T00:18:20;19.10;99.90
8860;DHT22;4466;50.948;4.832;2023-08-24T00:20:48;19.00;99.90
8860;DHT22;4466;50.948;4.832;2023-08-24T00:23:13;19.10;99.90
8860;DHT22;4466;50.948;4.832;2023-08-24T00:25:39;19.10;99.90
8860;DHT22;4466;50.948;4.832;2023-08-24T00:28:06;19.20;99.90
8860;DHT22;4466;50.948;4.832;2023-08-24T00:30:32;19.00;99.90
8860;DHT22;4466;50.948;4.832;2023-08-24T00:32:58;19.00;99.90
8860;DHT22;4466;50.948;4.832;2023-08-24T00:35:23;19.00;99.90
8860;DHT22;4466;50.948;4.832;2023-08-24T00:37:49;19.00;99.90
8860;DHT22;4466;50.948;4.832;2023-08-24T00:40:16;19.00;99.90
8860;DHT22;4466;50.948;4.832;2023-08-24T00:42:43;18.90;99.90
8860;DHT22;4466;50.948;4.832;2023-08-24T00:45:11;18.90;99.90
8860;DHT22;4466;50.948;4.832;2023-08-24T00:47:42;18.80;99.90
8860;DHT22;4466;50.948;4.832;2023-08-24T00:50:08;19.00;99.90
8860;DHT22;4466;50.948;4.832;2023-08-24T00:52:36;19.00;99.90
8860;DHT22;4466;50.948;4.832;2023-08-24T00:55:03;19.10;99.90
8860;DHT22;4466;50.948;4.832;2023-08-24T00:57:29;19.10;99.90
8860;DHT22;4466;50.948;4.832;2023-08-24T00:59:56;19.20;99.90
8860;DHT22;4466;50.948;4.832;2023-08-24T01:02:22;19.20;99.90
8860;DHT22;4466;50.948;4.832;2023-08-24T01:04:48;19.40;99.90
8860;DHT22;4466;50.948;4.832;2023-08-24T01:07:14;19.40;99.90
8860;DHT22;4466;50.948;4.832;2023-08-24T01:09:41;19.50;99.90
8860;DHT22;4466;50.948;4.832;2023-08-24T01:12:28;19.50;99.90
8860;DHT22;4466;50.948;4.832;2023-08-24T01:15:19;19.70;99.90
8860;DHT22;4466;50.948;4.832;2023-08-24T01:17:46;19.60;99.90
8860;DHT22;4466;50.948;4.832;2023-08-24T01:20:14;19.60;99.90
8860;DHT22;4466;50.948;4.832;2023-08-24T01:25:37;19.70;99.90
8860;DHT22;4466;50.948;4.832;2023-08-24T01:28:05;19.70;99.90
8860;DHT22;4466;50.948;4.832;2023-08-24T01:30:34;19.70;99.90
8860;DHT22;4466;50.948;4.832;2023-08-24T01:33:03;19.70;99.90
8860;DHT22;4466;50.948;4.832;2023-08-24T01:35:30;19.70;99.90
8860;DHT22;4466;50.948;4.832;2023-08-24T01:37:56;19.70;99.90
8860;DHT22;4466;50.948;4.832;2023-08-24T01:43:15;19.60;99.90
8860;DHT22;4466;50.948;4.832;2023-08-24T01:45:44;19.60;99.90
8860;DHT22;4466;50.948;4.832;2023-08-24T01:48:12;19.50;99.90
8860;DHT22;4466;50.948;4.832;2023-08-24T01:50:38;19.50;99.90
8860;DHT22;4466;50.948;4.832;2023-08-24T01:53:04;19.50;99.90
8860;DHT22;4466;50.948;4.832;2023-08-24T01:55:30;19.50;99.90
8860;DHT22;4466;50.948;4.832;2023-08-24T01:57:56;19.50;99.90
8860;DHT22;4466;50.948;4.832;2023-08-24T02:00:22;19.50;99.90
8860;DHT22;4466;50.948;4.832;2023-08-24T02:02:48;19.50;99.90
8860;DHT22;4466;50.948;4.832;2023-08-24T02:05:14;19.50;99.90
8860;DHT22;4466;50.948;4.832;2023-08-24T02:07:40;19.60;99.90
8860;DHT22;4466;50.948;4.832;2023-08-24T02:10:06;19.60;99.90
8860;DHT22;4466;50.948;4.832;2023-08-24T02:12:32;19.60;99.90
8860;DHT22;4466;50.948;4.832;2023-08-24T02:14:58;19.70;99.90
8860;DHT22;4466;50.948;4.832;2023-08-24T02:17:23;19.60;99.90
8860;DHT22;4466;50.948;4.832;2023-08-24T02:19:49;19.60;99.90
8860;DHT22;4466;50.948;4.832;2023-08-24T02:22:15;19.70;99.90
8860;DHT22;4466;50.948;4.832;2023-08-24T02:24:41;19.60;99.90
8860;DHT22;4466;50.948;4.832;2023-08-24T02:27:06;19.50;99.90
8860;DHT22;4466;50.948;4.832;2023-08-24T02:29:32;19.60;99.90
8860;DHT22;4466;50.948;4.832;2023-08-24T02:31:58;19.50;99.90
8860;DHT22;4466;50.948;4.832;2023-08-24T02:34:24;19.50;99.90
8860;DHT22;4466;50.948;4.832;2023-08-24T02:36:49;19.50;99.90
8860;DHT22;4466;50.948;4.832;2023-08-24T02:39:15;19.50;99.90
8860;DHT22;4466;50.948;4.832;2023-08-24T02:41:41;19.30;99.90
8860;DHT22;4466;50.948;4.832;2023-08-24T02:44:07;19.40;99.90
8860;DHT22;4466;50.948;4.832;2023-08-24T02:46:33;19.40;99.90
8860;DHT22;4466;50.948;4.832;2023-08-24T02:48:58;19.40;99.90
8860;DHT22;4466;50.948;4.832;2023-08-24T02:51:24;19.40;99.90
8860;DHT22;4466;50.948;4.832;2023-08-24T02:53:50;19.40;99.90
8860;DHT22;4466;50.948;4.832;2023-08-24T02:56:16;19.10;99.90
8860;DHT22;4466;50.948;4.832;2023-08-24T02:58:42;19.30;99.90
8860;DHT22;4466;50.948;4.832;2023-08-24T03:01:07;19.30;99.90
8860;DHT22;4466;50.948;4.832;2023-08-24T03:03:34;19.40;99.90
8860;DHT22;4466;50.948;4.832;2023-08-24T03:06:05;19.30;99.90
8860;DHT22;4466;50.948;4.832;2023-08-24T03:08:32;19.40;99.90
8860;DHT22;4466;50.948;4.832;2023-08-24T03:10:58;19.30;99.90
8860;DHT22;4466;50.948;4.832;2023-08-24T03:13:24;19.40;99.90
8860;DHT22;4466;50.948;4.832;2023-08-24T03:15:50;19.40;99.90
8860;DHT22;4466;50.948;4.832;2023-08-24T03:18:17;19.40;99.90
8860;DHT22;4466;50.948;4.832;2023-08-24T03:20:44;19.40;99.90
8860;DHT22;4466;50.948;4.832;2023-08-24T03:23:10;19.40;99.90
8860;DHT22;4466;50.948;4.832;2023-08-24T03:25:38;19.40;99.90
8860;DHT22;4466;50.948;4.832;2023-08-24T03:28:04;19.40;99.90
8860;DHT22;4466;50.948;4.832;2023-08-24T03:30:30;19.40;99.90
8860;DHT22;4466;50.948;4.832;2023-08-24T03:32:56;19.40;99.90
8860;DHT22;4466;50.948;4.832;2023-08-24T03:35:22;19.40;99.90
8860;DHT22;4466;50.948;4.832;2023-08-24T03:37:48;19.30;99.90
8860;DHT22;4466;50.948;4.832;2023-08-24T03:40:13;19.20;99.90
8860;DHT22;4466;50.948;4.832;2023-08-24T03:42:39;19.20;99.90
8860;DHT22;4466;50.948;4.832;2023-08-24T03:45:05;19.10;99.90
8860;DHT22;4466;50.948;4.832;2023-08-24T03:47:31;19.00;99.90
8860;DHT22;4466;50.948;4.832;2023-08-24T03:49:57;19.00;99.90
8860;DHT22;4466;50.948;4.832;2023-08-24T03:52:22;18.90;99.90
8860;DHT22;4466;50.948;4.832;2023-08-24T03:54:48;18.90;99.90
8860;DHT22;4466;50.948;4.832;2023-08-24T03:57:14;18.80;99.90
8860;DHT22;4466;50.948;4.832;2023-08-24T03:59:41;18.80;99.90
8860;DHT22;4466;50.948;4.832;2023-08-24T04:02:07;18.80;99.90
8860;DHT22;4466;50.948;4.832;2023-08-24T04:04:33;18.70;99.90
8860;DHT22;4466;50.948;4.832;2023-08-24T04:06:58;18.70;99.90
8860;DHT22;4466;50.948;4.832;2023-08-24T04:09:24;18.70;99.90
8860;DHT22;4466;50.948;4.832;2023-08-24T04:11:50;18.60;99.90
8860;DHT22;4466;50.948;4.832;2023-08-24T04:14:15;18.60;99.90
8860;DHT22;4466;50.948;4.832;2023-08-24T04:16:41;18.50;99.90
8860;DHT22;4466;50.948;4.832;2023-08-24T04:19:08;18.50;99.90
8860;DHT22;4466;50.948;4.832;2023-08-24T04:21:33;18.50;99.90
8860;DHT22;4466;50.948;4.832;2023-08-24T04:23:59;18.40;99.90
8860;DHT22;4466;50.948;4.832;2023-08-24T04:26:25;18.40;99.90
8860;DHT22;4466;50.948;4.832;2023-08-24T04:28:50;18.40;99.90
8860;DHT22;4466;50.948;4.832;2023-08-24T04:31:16;18.40;99.90
8860;DHT22;4466;50.948;4.832;2023-08-24T04:33:42;18.30;99.90
8860;DHT22;4466;50.948;4.832;2023-08-24T04:36:07;18.30;99.90
8860;DHT22;4466;50.948;4.832;2023-08-24T04:38:34;18.30;99.90
8860;DHT22;4466;50.948;4.832;2023-08-24T04:41:00;18.30;99.90
8860;DHT22;4466;50.948;4.832;2023-08-24T04:43:25;18.30;99.90
8860;DHT22;4466;50.948;4.832;2023-08-24T04:45:53;18.30;99.90
8860;DHT22;4466;50.948;4.832;2023-08-24T04:48:20;18.20;99.90
8860;DHT22;4466;50.948;4.832;2023-08-24T04:50:46;18.20;99.90
8860;DHT22;4466;50.948;4.832;2023-08-24T04:53:18;18.20;99.90
8860;DHT22;4466;50.948;4.832;2023-08-24T04:55:44;18.20;99.90
8860;DHT22;4466;50.948;4.832;2023-08-24T04:58:11;18.20;99.90
8860;DHT22;4466;50.948;4.832;2023-08-24T05:00:37;18.10;99.90
8860;DHT22;4466;50.948;4.832;2023-08-24T05:03:04;18.10;99.90
8860;DHT22;4466;50.948;4.832;2023-08-24T05:05:34;18.10;99.90
8860;DHT22;4466;50.948;4.832;2023-08-24T05:08:01;18.10;99.90
8860;DHT22;4466;50.948;4.832;2023-08-24T05:10:30;18.10;99.90
8860;DHT22;4466;50.948;4.832;2023-08-24T05:12:56;18.10;99.90
8860;DHT22;4466;50.948;4.832;2023-08-24T05:15:22;18.10;99.90
8860;DHT22;4466;50.948;4.832;2023-08-24T05:17:48;18.10;99.90
8860;DHT22;4466;50.948;4.832;2023-08-24T05:20:13;18.10;99.90
8860;DHT22;4466;50.948;4.832;2023-08-24T05:22:40;18.10;99.90
8860;DHT22;4466;50.948;4.832;2023-08-24T05:25:06;18.00;99.90
8860;DHT22;4466;50.948;4.832;2023-08-24T05:27:32;18.10;99.90
8860;DHT22;4466;50.948;4.832;2023-08-24T05:29:57;18.10;99.90
8860;DHT22;4466;50.948;4.832;2023-08-24T05:32:23;18.10;99.90
8860;DHT22;4466;50.948;4.832;2023-08-24T05:34:49;18.20;99.90
8860;DHT22;4466;50.948;4.832;2023-08-24T05:37:16;18.20;99.90
8860;DHT22;4466;50.948;4.832;2023-08-24T05:39:41;18.40;99.90
8860;DHT22;4466;50.948;4.832;2023-08-24T05:42:08;18.40;99.90
8860;DHT22;4466;50.948;4.832;2023-08-24T05:44:34;18.50;99.90
8860;DHT22;4466;50.948;4.832;2023-08-24T05:47:00;18.60;99.90
8860;DHT22;4466;50.948;4.832;2023-08-24T05:49:26;18.60;99.90
8860;DHT22;4466;50.948;4.832;2023-08-24T05:51:52;18.90;99.90
8860;DHT22;4466;50.948;4.832;2023-08-24T05:54:18;18.90;99.90
8860;DHT22;4466;50.948;4.832;2023-08-24T05:56:47;19.00;99.90
8860;DHT22;4466;50.948;4.832;2023-08-24T05:59:13;19.10;99.90
8860;DHT22;4466;50.948;4.832;2023-08-24T06:01:39;19.20;99.90
8860;DHT22;4466;50.948;4.832;2023-08-24T06:04:07;19.30;99.90
8860;DHT22;4466;50.948;4.832;2023-08-24T06:06:33;19.40;99.90
8860;DHT22;4466;50.948;4.832;2023-08-24T06:08:58;19.50;99.90
8860;DHT22;4466;50.948;4.832;2023-08-24T06:11:24;19.70;99.90
8860;DHT22;4466;50.948;4.832;2023-08-24T06:13:49;19.80;99.90
8860;DHT22;4466;50.948;4.832;2023-08-24T06:16:17;19.90;99.90
8860;DHT22;4466;50.948;4.832;2023-08-24T06:18:43;20.00;99.90
8860;DHT22;4466;50.948;4.832;2023-08-24T06:21:09;20.00;99.90
8860;DHT22;4466;50.948;4.832;2023-08-24T06:23:35;20.10;99.90
8860;DHT22;4466;50.948;4.832;2023-08-24T06:26:00;20.20;99.90
8860;DHT22;4466;50.948;4.832;2023-08-24T06:28:27;20.30;99.90
8860;DHT22;4466;50.948;4.832;2023-08-24T06:30:54;20.30;99.90
8860;DHT22;4466;50.948;4.832;2023-08-24T06:33:20;20.50;99.90
8860;DHT22;4466;50.948;4.832;2023-08-24T06:35:46;20.60;99.90
8860;DHT22;4466;50.948;4.832;2023-08-24T06:38:14;20.70;99.90
8860;DHT22;4466;50.948;4.832;2023-08-24T06:40:39;20.80;99.90
8860;DHT22;4466;50.948;4.832;2023-08-24T06:43:05;20.90;99.90
8860;DHT22;4466;50.948;4.832;2023-08-24T06:45:31;21.10;99.90
8860;DHT22;4466;50.948;4.832;2023-08-24T06:47:57;21.20;99.90
8860;DHT22;4466;50.948;4.832;2023-08-24T06:50:22;21.40;99.90
8860;DHT22;4466;50.948;4.832;2023-08-24T06:52:48;21.50;99.90
8860;DHT22;4466;50.948;4.832;2023-08-24T06:55:14;21.70;99.90
8860;DHT22;4466;50.948;4.832;2023-08-24T06:57:40;21.80;99.90
8860;DHT22;4466;50.948;4.832;2023-08-24T07:00:06;21.80;99.90
8860;DHT22;4466;50.948;4.832;2023-08-24T07:02:35;21.90;99.90
8860;DHT22;4466;50.948;4.832;2023-08-24T07:05:01;22.10;99.90
8860;DHT22;4466;50.948;4.832;2023-08-24T07:07:26;22.20;99.90
8860;DHT22;4466;50.948;4.832;2023-08-24T07:09:52;22.30;99.90
8860;DHT22;4466;50.948;4.832;2023-08-24T07:12:17;22.40;99.90
8860;DHT22;4466;50.948;4.832;2023-08-24T07:14:43;22.50;99.90
8860;DHT22;4466;50.948;4.832;2023-08-24T07:17:09;22.60;99.90
8860;DHT22;4466;50.948;4.832;2023-08-24T07:19:35;22.70;99.90
8860;DHT22;4466;50.948;4.832;2023-08-24T07:22:00;22.80;99.90
8860;DHT22;4466;50.948;4.832;2023-08-24T07:24:26;22.90;99.90
8860;DHT22;4466;50.948;4.832;2023-08-24T07:26:54;23.10;99.90
8860;DHT22;4466;50.948;4.832;2023-08-24T07:29:20;23.30;99.90
8860;DHT22;4466;50.948;4.832;2023-08-24T07:31:46;23.40;99.90
8860;DHT22;4466;50.948;4.832;2023-08-24T07:34:12;23.60;99.90
8860;DHT22;4466;50.948;4.832;2023-08-24T07:36:37;23.70;99.90
8860;DHT22;4466;50.948;4.832;2023-08-24T07:39:03;23.80;99.90
8860;DHT22;4466;50.948;4.832;2023-08-24T07:41:30;24.00;99.90
8860;DHT22;4466;50.948;4.832;2023-08-24T07:43:55;24.00;99.90
8860;DHT22;4466;50.948;4.832;2023-08-24T07:46:21;24.20;99.90
8860;DHT22;4466;50.948;4.832;2023-08-24T07:48:47;24.10;99.90
8860;DHT22;4466;50.948;4.832;2023-08-24T07:51:12;24.20;99.90
8860;DHT22;4466;50.948;4.832;2023-08-24T07:53:38;24.30;99.90
8860;DHT22;4466;50.948;4.832;2023-08-24T07:56:04;24.30;99.90
8860;DHT22;4466;50.948;4.832;2023-08-24T07:58:29;24.40;99.90
8860;DHT22;4466;50.948;4.832;2023-08-24T08:00:57;24.40;99.90
8860;DHT22;4466;50.948;4.832;2023-08-24T08:03:22;24.50;99.90
8860;DHT22;4466;50.948;4.832;2023-08-24T08:05:48;24.50;99.90
8860;DHT22;4466;50.948;4.832;2023-08-24T08:08:14;24.60;99.90
8860;DHT22;4466;50.948;4.832;2023-08-24T08:10:40;24.60;99.90
8860;DHT22;4466;50.948;4.832;2023-08-24T08:13:07;24.60;99.90
8860;DHT22;4466;50.948;4.832;2023-08-24T08:15:33;24.60;99.90
8860;DHT22;4466;50.948;4.832;2023-08-24T08:17:58;24.70;99.90
8860;DHT22;4466;50.948;4.832;2023-08-24T08:20:24;24.70;99.90
8860;DHT22;4466;50.948;4.832;2023-08-24T08:22:50;24.80;99.90
8860;DHT22;4466;50.948;4.832;2023-08-24T08:25:16;24.80;99.90
8860;DHT22;4466;50.948;4.832;2023-08-24T08:27:43;24.80;99.90
8860;DHT22;4466;50.948;4.832;2023-08-24T08:30:10;24.90;99.90
8860;DHT22;4466;50.948;4.832;2023-08-24T08:32:35;24.90;99.90
8860;DHT22;4466;50.948;4.832;2023-08-24T08:35:01;24.90;99.90
8860;DHT22;4466;50.948;4.832;2023-08-24T08:37:30;25.00;99.90
8860;DHT22;4466;50.948;4.832;2023-08-24T08:39:57;25.00;99.90
8860;DHT22;4466;50.948;4.832;2023-08-24T08:42:23;25.10;99.90
8860;DHT22;4466;50.948;4.832;2023-08-24T08:44:49;25.20;99.90
8860;DHT22;4466;50.948;4.832;2023-08-24T08:47:15;25.20;99.90
8860;DHT22;4466;50.948;4.832;2023-08-24T08:49:47;25.30;99.90
8860;DHT22;4466;50.948;4.832;2023-08-24T08:52:13;25.30;99.90
8860;DHT22;4466;50.948;4.832;2023-08-24T08:54:39;25.40;99.90
8860;DHT22;4466;50.948;4.832;2023-08-24T08:57:06;25.50;99.90
8860;DHT22;4466;50.948;4.832;2023-08-24T08:59:32;25.50;99.90
8860;DHT22;4466;50.948;4.832;2023-08-24T09:02:03;25.60;99.90
8860;DHT22;4466;50.948;4.832;2023-08-24T09:04:33;25.70;99.90
8860;DHT22;4466;50.948;4.832;2023-08-24T09:07:02;25.80;99.90
8860;DHT22;4466;50.948;4.832;2023-08-24T09:09:30;25.80;99.90
8860;DHT22;4466;50.948;4.832;2023-08-24T09:11:55;25.80;99.90
8860;DHT22;4466;50.948;4.832;2023-08-24T09:14:22;25.80;99.90
8860;DHT22;4466;50.948;4.832;2023-08-24T09:16:48;25.90;99.90
8860;DHT22;4466;50.948;4.832;2023-08-24T09:19:14;25.90;99.90
8860;DHT22;4466;50.948;4.832;2023-08-24T09:21:40;26.00;99.90
8860;DHT22;4466;50.948;4.832;2023-08-24T09:24:08;25.90;99.90
8860;DHT22;4466;50.948;4.832;2023-08-24T09:26:35;25.60;99.90
8860;DHT22;4466;50.948;4.832;2023-08-24T09:29:11;25.60;99.90
8860;DHT22;4466;50.948;4.832;2023-08-24T09:31:38;25.50;99.90
8860;DHT22;4466;50.948;4.832;2023-08-24T09:34:05;25.30;99.90
8860;DHT22;4466;50.948;4.832;2023-08-24T09:36:35;25.20;99.90
8860;DHT22;4466;50.948;4.832;2023-08-24T09:39:02;25.10;99.90
8860;DHT22;4466;50.948;4.832;2023-08-24T09:41:48;25.10;99.90
8860;DHT22;4466;50.948;4.832;2023-08-24T09:44:13;25.00;99.90
8860;DHT22;4466;50.948;4.832;2023-08-24T09:46:40;24.90;99.90
8860;DHT22;4466;50.948;4.832;2023-08-24T09:49:08;24.90;99.90
8860;DHT22;4466;50.948;4.832;2023-08-24T09:51:34;24.90;99.90
8860;DHT22;4466;50.948;4.832;2023-08-24T09:54:05;24.70;99.90
8860;DHT22;4466;50.948;4.832;2023-08-24T09:56:35;24.60;99.90
8860;DHT22;4466;50.948;4.832;2023-08-24T09:59:13;24.50;99.90
8860;DHT22;4466;50.948;4.832;2023-08-24T10:01:43;24.20;99.90
8860;DHT22;4466;50.948;4.832;2023-08-24T10:04:09;24.00;99.90
8860;DHT22;4466;50.948;4.832;2023-08-24T10:06:39;23.90;99.90
8860;DHT22;4466;50.948;4.832;2023-08-24T10:09:08;23.70;99.90
8860;DHT22;4466;50.948;4.832;2023-08-24T10:11:40;23.60;99.90
8860;DHT22;4466;50.948;4.832;2023-08-24T10:14:17;23.40;99.90
8860;DHT22;4466;50.948;4.832;2023-08-24T10:16:46;23.30;99.90
8860;DHT22;4466;50.948;4.832;2023-08-24T10:19:13;23.00;99.90
8860;DHT22;4466;50.948;4.832;2023-08-24T10:21:39;23.10;99.90
8860;DHT22;4466;50.948;4.832;2023-08-24T10:24:06;22.90;99.90
8860;DHT22;4466;50.948;4.832;2023-08-24T10:26:33;22.90;99.90
8860;DHT22;4466;50.948;4.832;2023-08-24T10:29:00;22.70;99.90
8860;DHT22;4466;50.948;4.832;2023-08-24T10:31:26;22.50;99.90
8860;DHT22;4466;50.948;4.832;2023-08-24T10:33:54;22.40;99.90
8860;DHT22;4466;50.948;4.832;2023-08-24T10:36:21;22.20;99.90
8860;DHT22;4466;50.948;4.832;2023-08-24T10:38:48;22.10;99.90
8860;DHT22;4466;50.948;4.832;2023-08-24T10:41:14;22.00;99.90
8860;DHT22;4466;50.948;4.832;2023-08-24T10:43:40;21.90;99.90
8860;DHT22;4466;50.948;4.832;2023-08-24T10:46:13;21.90;99.90
8860;DHT22;4466;50.948;4.832;2023-08-24T10:51:16;21.90;99.90
8860;DHT22;4466;50.948;4.832;2023-08-24T10:54:01;21.90;99.90
8860;DHT22;4466;50.948;4.832;2023-08-24T10:56:36;21.90;99.90
8860;DHT22;4466;50.948;4.832;2023-08-24T11:01:41;21.90;99.90
8860;DHT22;4466;50.948;4.832;2023-08-24T11:04:07;22.10;99.90
8860;DHT22;4466;50.948;4.832;2023-08-24T11:09:17;22.40;99.90
8860;DHT22;4466;50.948;4.832;2023-08-24T11:11:58;22.60;99.90
8860;DHT22;4466;50.948;4.832;2023-08-24T11:14:24;22.90;99.90
8860;DHT22;4466;50.948;4.832;2023-08-24T11:17:01;23.20;99.90
8860;DHT22;4466;50.948;4.832;2023-08-24T11:19:50;23.50;99.90
8860;DHT22;4466;50.948;4.832;2023-08-24T11:22:19;23.80;99.90
8860;DHT22;4466;50.948;4.832;2023-08-24T11:24:46;24.00;99.90
8860;DHT22;4466;50.948;4.832;2023-08-24T11:27:12;24.00;99.90
8860;DHT22;4466;50.948;4.832;2023-08-24T11:29:38;24.20;99.90
8860;DHT22;4466;50.948;4.832;2023-08-24T11:32:04;24.30;99.90
8860;DHT22;4466;50.948;4.832;2023-08-24T11:34:30;24.30;99.90
8860;DHT22;4466;50.948;4.832;2023-08-24T11:36:56;24.40;99.90
8860;DHT22;4466;50.948;4.832;2023-08-24T11:39:22;24.40;99.90
8860;DHT22;4466;50.948;4.832;2023-08-24T11:42:03;24.50;99.90
8860;DHT22;4466;50.948;4.832;2023-08-24T11:44:29;24.40;99.90
8860;DHT22;4466;50.948;4.832;2023-08-24T11:46:56;24.60;99.90
8860;DHT22;4466;50.948;4.832;2023-08-24T11:49:23;24.60;99.90
8860;DHT22;4466;50.948;4.832;2023-08-24T11:51:50;24.60;99.90
8860;DHT22;4466;50.948;4.832;2023-08-24T11:54:18;24.70;99.90
8860;DHT22;4466;50.948;4.832;2023-08-24T11:56:44;24.70;99.90
8860;DHT22;4466;50.948;4.832;2023-08-24T11:59:15;24.60;99.90
8860;DHT22;4466;50.948;4.832;2023-08-24T12:01:41;24.60;99.90
8860;DHT22;4466;50.948;4.832;2023-08-24T12:04:08;24.60;99.90
8860;DHT22;4466;50.948;4.832;2023-08-24T12:06:33;24.70;99.90
8860;DHT22;4466;50.948;4.832;2023-08-24T12:08:59;24.60;99.90
8860;DHT22;4466;50.948;4.832;2023-08-24T12:11:26;24.50;99.90
8860;DHT22;4466;50.948;4.832;2023-08-24T12:13:54;24.50;99.90
8860;DHT22;4466;50.948;4.832;2023-08-24T12:16:22;24.70;99.90
8860;DHT22;4466;50.948;4.832;2023-08-24T12:18:54;24.70;99.90
8860;DHT22;4466;50.948;4.832;2023-08-24T12:21:24;24.50;99.90
8860;DHT22;4466;50.948;4.832;2023-08-24T12:24:03;24.50;99.90
8860;DHT22;4466;50.948;4.832;2023-08-24T12:26:34;24.50;99.90
8860;DHT22;4466;50.948;4.832;2023-08-24T12:29:02;24.40;99.90
8860;DHT22;4466;50.948;4.832;2023-08-24T12:31:28;24.40;99.90
8860;DHT22;4466;50.948;4.832;2023-08-24T12:34:07;24.10;99.90
8860;DHT22;4466;50.948;4.832;2023-08-24T12:36:36;23.90;99.90
8860;DHT22;4466;50.948;4.832;2023-08-24T12:39:04;23.70;99.90
8860;DHT22;4466;50.948;4.832;2023-08-24T12:41:30;23.60;99.90
8860;DHT22;4466;50.948;4.832;2023-08-24T12:43:56;23.40;99.90
8860;DHT22;4466;50.948;4.832;2023-08-24T12:46:22;23.40;99.90
8860;DHT22;4466;50.948;4.832;2023-08-24T12:48:47;23.30;99.90
8860;DHT22;4466;50.948;4.832;2023-08-24T12:51:13;23.20;99.90
8860;DHT22;4466;50.948;4.832;2023-08-24T12:53:39;23.10;99.90
8860;DHT22;4466;50.948;4.832;2023-08-24T12:56:04;23.00;99.90
8860;DHT22;4466;50.948;4.832;2023-08-24T12:58:30;22.90;99.90
8860;DHT22;4466;50.948;4.832;2023-08-24T13:00:56;22.90;99.90
8860;DHT22;4466;50.948;4.832;2023-08-24T13:03:22;22.80;99.90
8860;DHT22;4466;50.948;4.832;2023-08-24T13:05:48;22.80;99.90
8860;DHT22;4466;50.948;4.832;2023-08-24T13:08:14;22.70;99.90
8860;DHT22;4466;50.948;4.832;2023-08-24T13:10:39;22.60;99.90
8860;DHT22;4466;50.948;4.832;2023-08-24T13:13:05;22.50;99.90
8860;DHT22;4466;50.948;4.832;2023-08-24T13:15:31;22.40;99.90
8860;DHT22;4466;50.948;4.832;2023-08-24T13:17:57;22.30;99.90
8860;DHT22;4466;50.948;4.832;2023-08-24T13:20:23;22.20;99.90
8860;DHT22;4466;50.948;4.832;2023-08-24T13:22:49;22.20;99.90
8860;DHT22;4466;50.948;4.832;2023-08-24T13:25:14;22.10;99.90
8860;DHT22;4466;50.948;4.832;2023-08-24T13:27:40;22.00;99.90
8860;DHT22;4466;50.948;4.832;2023-08-24T13:30:06;22.00;99.90
8860;DHT22;4466;50.948;4.832;2023-08-24T13:32:32;21.90;99.90
8860;DHT22;4466;50.948;4.832;2023-08-24T13:34:58;21.90;99.90
8860;DHT22;4466;50.948;4.832;2023-08-24T13:37:23;21.90;99.90
8860;DHT22;4466;50.948;4.832;2023-08-24T13:39:50;21.90;99.90
8860;DHT22;4466;50.948;4.832;2023-08-24T13:42:16;21.80;99.90
8860;DHT22;4466;50.948;4.832;2023-08-24T13:44:42;21.70;99.90
8860;DHT22;4466;50.948;4.832;2023-08-24T13:47:08;21.70;99.90
8860;DHT22;4466;50.948;4.832;2023-08-24T13:49:34;21.70;99.90
8860;DHT22;4466;50.948;4.832;2023-08-24T13:51:59;21.60;99.90
8860;DHT22;4466;50.948;4.832;2023-08-24T13:54:25;21.80;99.90
8860;DHT22;4466;50.948;4.832;2023-08-24T13:56:52;21.70;99.90
8860;DHT22;4466;50.948;4.832;2023-08-24T13:59:19;21.70;99.90
8860;DHT22;4466;50.948;4.832;2023-08-24T14:01:46;21.70;99.90
8860;DHT22;4466;50.948;4.832;2023-08-24T14:04:12;21.70;99.90
8860;DHT22;4466;50.948;4.832;2023-08-24T14:06:37;21.70;99.90
8860;DHT22;4466;50.948;4.832;2023-08-24T14:09:04;21.80;99.90
8860;DHT22;4466;50.948;4.832;2023-08-24T14:11:30;21.80;99.90
8860;DHT22;4466;50.948;4.832;2023-08-24T14:13:55;21.80;99.90
8860;DHT22;4466;50.948;4.832;2023-08-24T14:16:21;21.90;99.90
8860;DHT22;4466;50.948;4.832;2023-08-24T14:18:48;21.90;99.90
8860;DHT22;4466;50.948;4.832;2023-08-24T14:21:14;22.10;99.90
8860;DHT22;4466;50.948;4.832;2023-08-24T14:23:40;22.10;99.90
8860;DHT22;4466;50.948;4.832;2023-08-24T14:26:06;22.10;99.90
8860;DHT22;4466;50.948;4.832;2023-08-24T14:28:49;22.10;99.90
8860;DHT22;4466;50.948;4.832;2023-08-24T14:31:16;22.20;99.90
8860;DHT22;4466;50.948;4.832;2023-08-24T14:33:42;22.10;99.90
8860;DHT22;4466;50.948;4.832;2023-08-24T14:36:07;22.10;99.90
8860;DHT22;4466;50.948;4.832;2023-08-24T14:38:33;22.10;99.90
8860;DHT22;4466;50.948;4.832;2023-08-24T14:40:59;22.10;99.90
8860;DHT22;4466;50.948;4.832;2023-08-24T14:43:27;22.10;99.90
8860;DHT22;4466;50.948;4.832;2023-08-24T14:45:54;22.20;99.90
8860;DHT22;4466;50.948;4.832;2023-08-24T14:48:19;22.20;99.90
8860;DHT22;4466;50.948;4.832;2023-08-24T14:50:46;22.30;99.90
8860;DHT22;4466;50.948;4.832;2023-08-24T14:53:12;22.30;99.90
8860;DHT22;4466;50.948;4.832;2023-08-24T14:55:41;22.40;99.90
8860;DHT22;4466;50.948;4.832;2023-08-24T14:58:07;22.50;99.90
8860;DHT22;4466;50.948;4.832;2023-08-24T15:00:33;22.70;99.90
8860;DHT22;4466;50.948;4.832;2023-08-24T15:02:59;22.80;99.90
8860;DHT22;4466;50.948;4.832;2023-08-24T15:05:25;22.90;99.90
8860;DHT22;4466;50.948;4.832;2023-08-24T15:07:51;22.90;99.90
8860;DHT22;4466;50.948;4.832;2023-08-24T15:10:17;23.10;99.90
8860;DHT22;4466;50.948;4.832;2023-08-24T15:12:46;23.00;99.90
8860;DHT22;4466;50.948;4.832;2023-08-24T15:15:15;23.10;99.90
8860;DHT22;4466;50.948;4.832;2023-08-24T15:17:43;23.10;99.90
8860;DHT22;4466;50.948;4.832;2023-08-24T15:20:10;23.00;99.90
8860;DHT22;4466;50.948;4.832;2023-08-24T15:22:39;23.10;99.90
8860;DHT22;4466;50.948;4.832;2023-08-24T15:25:06;23.00;99.90
8860;DHT22;4466;50.948;4.832;2023-08-24T15:27:31;23.10;99.90
8860;DHT22;4466;50.948;4.832;2023-08-24T15:30:00;23.20;99.90
8860;DHT22;4466;50.948;4.832;2023-08-24T15:32:29;23.20;99.90
8860;DHT22;4466;50.948;4.832;2023-08-24T15:34:55;23.30;99.90
8860;DHT22;4466;50.948;4.832;2023-08-24T15:37:21;23.30;99.90
8860;DHT22;4466;50.948;4.832;2023-08-24T15:39:47;23.30;99.90
8860;DHT22;4466;50.948;4.832;2023-08-24T15:42:13;23.40;99.90
8860;DHT22;4466;50.948;4.832;2023-08-24T15:44:38;23.30;99.90
8860;DHT22;4466;50.948;4.832;2023-08-24T15:47:04;23.40;99.90
8860;DHT22;4466;50.948;4.832;2023-08-24T15:49:29;23.50;99.90
8860;DHT22;4466;50.948;4.832;2023-08-24T15:51:55;23.60;99.90
8860;DHT22;4466;50.948;4.832;2023-08-24T15:54:21;23.70;99.90
8860;DHT22;4466;50.948;4.832;2023-08-24T15:56:48;24.00;99.90
8860;DHT22;4466;50.948;4.832;2023-08-24T15:59:18;24.20;99.90
8860;DHT22;4466;50.948;4.832;2023-08-24T16:01:45;24.40;99.90
8860;DHT22;4466;50.948;4.832;2023-08-24T16:04:11;24.70;99.90
8860;DHT22;4466;50.948;4.832;2023-08-24T16:06:38;24.90;99.90
8860;DHT22;4466;50.948;4.832;2023-08-24T16:09:04;25.00;99.90
8860;DHT22;4466;50.948;4.832;2023-08-24T16:11:29;24.90;99.90
8860;DHT22;4466;50.948;4.832;2023-08-24T16:13:55;25.10;99.90